createdAt,value
2022-09-02T00:00:07.819Z,17.56
2022-09-02T00:02:35.690Z,17.54
2022-09-02T00:05:03.721Z,17.51
2022-09-02T00:07:31.597Z,17.48
2022-09-02T00:10:00.599Z,17.50
2022-09-02T00:12:28.269Z,17.48
2022-09-02T00:14:56.345Z,17.45
2022-09-02T00:17:23.967Z,17.45
2022-09-02T00:19:56.009Z,17.43
2022-09-02T00:22:24.091Z,17.37
2022-09-02T00:24:52.046Z,17.30
2022-09-02T00:27:19.745Z,17.24
2022-09-02T00:29:47.422Z,17.14
2022-09-02T00:32:15.128Z,17.06
2022-09-02T00:34:42.825Z,17.07
2022-09-02T00:37:10.837Z,17.03
2022-09-02T00:39:38.542Z,16.97
2022-09-02T00:42:06.992Z,16.89
2022-09-02T00:44:35.043Z,16.80
2022-09-02T00:47:03.173Z,16.72
2022-09-02T00:49:30.966Z,16.63
2022-09-02T00:51:58.634Z,16.54
2022-09-02T00:54:26.507Z,16.47
2022-09-02T00:56:55.869Z,16.42
2022-09-02T00:59:23.581Z,16.36
2022-09-02T01:01:51.308Z,16.29
2022-09-02T01:04:19.105Z,16.22
2022-09-02T01:06:47.107Z,16.14
2022-09-02T01:09:16.238Z,16.07
2022-09-02T01:11:44.098Z,16.00
2022-09-02T01:14:13.882Z,15.95
2022-09-02T01:16:42.961Z,15.88
2022-09-02T01:19:10.744Z,15.84
2022-09-02T01:21:39.181Z,15.79
2022-09-02T01:24:07.233Z,15.75
2022-09-02T01:26:35.203Z,15.73
2022-09-02T01:29:03.020Z,15.71
2022-09-02T01:31:30.752Z,15.68
2022-09-02T01:33:59.695Z,15.65
2022-09-02T01:36:27.750Z,15.63
2022-09-02T01:38:55.677Z,15.59
2022-09-02T01:41:23.434Z,15.55
2022-09-02T01:43:51.135Z,15.54
2022-09-02T01:46:19.263Z,15.51
2022-09-02T01:48:46.990Z,15.46
2022-09-02T01:51:14.747Z,15.45
2022-09-02T01:53:42.430Z,15.43
2022-09-02T01:56:10.853Z,15.41
2022-09-02T01:58:38.557Z,15.39
2022-09-02T02:01:06.269Z,15.36
2022-09-02T02:03:36.052Z,15.32
2022-09-02T02:06:06.879Z,15.30
2022-09-02T02:08:34.614Z,15.27
2022-09-02T02:11:02.274Z,15.24
2022-09-02T02:13:30.098Z,15.21
2022-09-02T02:15:58.788Z,15.18
2022-09-02T02:18:26.663Z,15.16
2022-09-02T02:20:54.327Z,15.13
2022-09-02T02:23:22.720Z,15.10
2022-09-02T02:25:50.956Z,15.10
2022-09-02T02:28:18.738Z,15.12
2022-09-02T02:30:46.399Z,15.12
2022-09-02T02:33:14.072Z,15.12
2022-09-02T02:35:42.127Z,15.12
2022-09-02T02:38:10.377Z,15.14
2022-09-02T02:40:42.179Z,15.17
2022-09-02T02:43:09.843Z,15.17
2022-09-02T02:45:37.664Z,15.19
2022-09-02T02:48:05.267Z,15.19
2022-09-02T02:50:33.178Z,15.19
2022-09-02T02:53:02.881Z,15.19
2022-09-02T02:55:30.631Z,15.19
2022-09-02T02:57:58.322Z,15.18
2022-09-02T03:00:25.976Z,15.16
2022-09-02T03:02:53.900Z,15.16
2022-09-02T03:05:21.675Z,15.13
2022-09-02T03:07:49.343Z,15.12
2022-09-02T03:10:17.000Z,15.11
2022-09-02T03:12:47.772Z,15.10
2022-09-02T03:15:17.259Z,15.10
2022-09-02T03:17:44.867Z,15.08
2022-09-02T03:20:12.535Z,15.07
2022-09-02T03:22:40.487Z,15.05
2022-09-02T03:25:08.142Z,15.02
2022-09-02T03:27:35.963Z,15.01
2022-09-02T03:30:03.642Z,14.99
2022-09-02T03:32:31.342Z,14.98
2022-09-02T03:34:59.106Z,14.96
2022-09-02T03:37:26.753Z,14.95
2022-09-02T03:39:54.350Z,14.94
2022-09-02T03:42:22.355Z,14.92
2022-09-02T03:44:50.181Z,14.90
2022-09-02T03:47:20.743Z,14.88
2022-09-02T03:49:52.273Z,14.87
2022-09-02T03:52:20.836Z,14.82
2022-09-02T03:54:49.116Z,14.77
2022-09-02T03:57:16.781Z,14.72
2022-09-02T03:59:44.796Z,14.68
2022-09-02T04:02:12.600Z,14.63
2022-09-02T04:04:40.440Z,14.59
2022-09-02T04:07:09.494Z,14.56
2022-09-02T04:09:37.107Z,14.54
2022-09-02T04:12:04.810Z,14.54
2022-09-02T04:14:32.417Z,14.54
2022-09-02T04:17:00.460Z,14.55
2022-09-02T04:19:28.080Z,14.54
2022-09-02T04:21:55.791Z,14.57
2022-09-02T04:24:23.485Z,14.58
2022-09-02T04:26:51.436Z,14.59
2022-09-02T04:29:19.126Z,14.60
2022-09-02T04:31:46.891Z,14.62
2022-09-02T04:34:14.885Z,14.65
2022-09-02T04:36:42.872Z,14.69
2022-09-02T04:39:10.622Z,14.74
2022-09-02T04:41:38.269Z,14.80
2022-09-02T04:44:06.682Z,14.87
2022-09-02T04:46:35.211Z,14.92
2022-09-02T04:49:03.010Z,14.98
2022-09-02T04:51:30.668Z,15.02
2022-09-02T04:53:58.269Z,15.07
2022-09-02T04:56:26.328Z,15.09
2022-09-02T04:58:54.012Z,15.10
2022-09-02T05:01:22.368Z,15.11
2022-09-02T05:03:50.068Z,15.11
2022-09-02T05:09:26.911Z,15.14
2022-09-02T05:11:57.530Z,15.15
2022-09-02T05:14:25.286Z,15.18
2022-09-02T05:16:54.067Z,15.23
2022-09-02T05:19:23.489Z,15.31
2022-09-02T05:21:51.198Z,15.40
2022-09-02T05:24:21.183Z,15.47
2022-09-02T05:26:52.180Z,15.57
2022-09-02T05:29:20.711Z,15.66
2022-09-02T05:31:49.011Z,15.75
2022-09-02T05:34:16.608Z,15.83
2022-09-02T05:36:44.598Z,15.91
2022-09-02T05:39:12.446Z,16.00
2022-09-02T05:41:40.122Z,16.14
2022-09-02T05:44:07.864Z,16.29
2022-09-02T05:46:35.970Z,16.46
2022-09-02T05:49:10.262Z,16.63
2022-09-02T05:51:38.469Z,16.81
2022-09-02T05:54:06.180Z,16.98
2022-09-02T05:56:33.886Z,17.16
2022-09-02T05:59:01.726Z,17.29
2022-09-02T06:01:30.217Z,17.41
2022-09-02T06:03:58.998Z,17.54
2022-09-02T06:06:27.670Z,17.64
2022-09-02T06:08:55.390Z,17.74
2022-09-02T06:11:23.019Z,17.83
2022-09-02T06:13:53.216Z,17.92
2022-09-02T06:16:21.877Z,18.00
2022-09-02T06:18:49.710Z,18.09
2022-09-02T06:21:17.529Z,18.16
2022-09-02T06:23:45.180Z,18.23
2022-09-02T06:26:13.137Z,18.30
2022-09-02T06:28:41.027Z,18.34
2022-09-02T06:31:08.845Z,18.38
2022-09-02T06:33:36.545Z,18.41
2022-09-02T06:36:04.459Z,18.40
2022-09-02T06:38:32.188Z,18.38
2022-09-02T06:40:59.998Z,18.42
2022-09-02T06:43:28.468Z,18.47
2022-09-02T06:46:10.575Z,18.58
2022-09-02T06:48:38.304Z,18.69
2022-09-02T06:51:06.050Z,18.81
2022-09-02T06:53:33.934Z,18.92
2022-09-02T06:56:01.650Z,19.02
2022-09-02T06:58:29.271Z,19.10
2022-09-02T07:00:57.124Z,19.19
2022-09-02T07:03:42.330Z,19.28
2022-09-02T07:06:10.447Z,19.40
2022-09-02T07:08:38.614Z,19.49
2022-09-02T07:11:06.417Z,19.60
2022-09-02T07:13:34.159Z,19.71
2022-09-02T07:16:02.144Z,19.80
2022-09-02T07:18:29.960Z,19.87
2022-09-02T07:20:57.630Z,19.97
2022-09-02T07:23:25.385Z,20.06
2022-09-02T07:25:55.490Z,20.14
2022-09-02T07:28:23.195Z,20.22
2022-09-02T07:30:58.998Z,20.26
2022-09-02T07:33:27.404Z,20.30
2022-09-02T07:35:55.412Z,20.34
2022-09-02T07:38:23.097Z,20.40
2022-09-02T07:40:50.923Z,20.46
2022-09-02T07:43:25.012Z,20.51
2022-09-02T07:45:55.859Z,20.56
2022-09-02T07:48:23.508Z,20.60
2022-09-02T07:50:52.118Z,20.63
2022-09-02T07:53:19.981Z,20.66
2022-09-02T07:55:48.292Z,20.69
2022-09-02T07:58:16.250Z,20.72
2022-09-02T08:00:43.920Z,20.75
2022-09-02T08:03:11.811Z,20.83
2022-09-02T08:05:39.710Z,20.89
2022-09-02T08:08:07.411Z,20.98
2022-09-02T08:10:35.266Z,21.07
2022-09-02T08:13:02.991Z,21.16
2022-09-02T08:15:31.810Z,21.27
2022-09-02T08:17:59.557Z,21.40
2022-09-02T08:20:27.382Z,21.52
2022-09-02T08:23:05.285Z,21.66
2022-09-02T08:25:41.059Z,21.80
2022-09-02T08:28:08.836Z,21.92
2022-09-02T08:30:36.445Z,22.03
2022-09-02T08:33:04.167Z,22.16
2022-09-02T08:35:32.108Z,22.26
2022-09-02T08:37:59.795Z,22.36
2022-09-02T08:40:29.840Z,22.46
2022-09-02T08:42:57.609Z,22.56
2022-09-02T08:45:26.122Z,22.69
2022-09-02T08:47:53.969Z,22.87
2022-09-02T08:50:21.631Z,23.05
2022-09-02T08:52:49.346Z,23.19
2022-09-02T08:55:17.376Z,23.33
2022-09-02T08:57:45.126Z,23.47
2022-09-02T09:00:12.855Z,23.64
2022-09-02T09:02:46.639Z,23.76
2022-09-02T09:05:15.477Z,23.81
2022-09-02T09:07:43.485Z,23.92
2022-09-02T09:10:11.151Z,24.07
2022-09-02T09:12:39.040Z,24.18
2022-09-02T09:15:06.692Z,24.31
2022-09-02T09:17:34.672Z,24.44
2022-09-02T09:20:02.811Z,24.65
2022-09-02T09:22:31.531Z,24.94
2022-09-02T09:24:59.185Z,25.23
2022-09-02T09:27:27.385Z,25.42
2022-09-02T09:29:55.366Z,25.59
2022-09-02T09:32:23.302Z,25.74
2022-09-02T09:34:51.940Z,25.87
2022-09-02T09:37:19.672Z,25.98
2022-09-02T09:39:47.420Z,25.97
2022-09-02T09:42:15.147Z,25.99
2022-09-02T09:44:45.202Z,25.98
2022-09-02T09:47:17.425Z,25.93
2022-09-02T09:49:45.724Z,25.87
2022-09-02T09:52:13.482Z,25.89
2022-09-02T09:54:41.261Z,25.99
2022-09-02T09:57:08.865Z,26.05
2022-09-02T09:59:39.039Z,26.23
2022-09-02T10:02:06.801Z,26.44
2022-09-02T10:04:50.013Z,26.63
2022-09-02T10:07:18.036Z,26.82
2022-09-02T10:09:45.826Z,27.05
2022-09-02T10:12:13.570Z,27.39
2022-09-02T10:14:41.640Z,27.71
2022-09-02T10:17:09.360Z,27.99
2022-09-02T10:19:37.216Z,28.22
2022-09-02T10:22:04.911Z,28.38
2022-09-02T10:24:33.690Z,28.57
2022-09-02T10:27:01.392Z,28.75
2022-09-02T10:29:29.195Z,28.91
2022-09-02T10:31:57.016Z,29.26
2022-09-02T10:34:24.994Z,29.60
2022-09-02T10:36:53.176Z,30.19
2022-09-02T10:39:21.598Z,30.89
2022-09-02T10:41:49.283Z,31.59
2022-09-02T10:44:16.920Z,32.11
2022-09-02T10:46:45.782Z,32.65
2022-09-02T10:49:13.978Z,33.17
2022-09-02T10:51:41.831Z,33.38
2022-09-02T10:54:11.155Z,33.62
2022-09-02T10:56:39.094Z,33.64
2022-09-02T10:59:07.193Z,32.93
2022-09-02T11:01:34.926Z,32.63
2022-09-02T11:04:02.578Z,33.21
2022-09-02T11:06:45.760Z,32.96
2022-09-02T11:09:19.442Z,32.02
2022-09-02T11:11:47.165Z,31.07
2022-09-02T11:14:16.853Z,30.37
2022-09-02T11:16:48.792Z,29.90
2022-09-02T11:19:16.426Z,29.68
2022-09-02T11:21:44.260Z,29.79
2022-09-02T11:24:12.106Z,29.70
2022-09-02T11:26:40.708Z,29.43
2022-09-02T11:29:08.323Z,29.11
2022-09-02T11:31:39.107Z,28.81
2022-09-02T11:34:07.239Z,28.52
2022-09-02T11:36:35.239Z,28.30
2022-09-02T11:39:03.302Z,29.30
2022-09-02T11:41:33.689Z,31.01
2022-09-02T11:44:03.540Z,32.63
2022-09-02T11:46:34.160Z,33.95
2022-09-02T11:49:01.914Z,34.61
2022-09-02T11:51:29.549Z,33.81
2022-09-02T11:53:57.436Z,32.77
2022-09-02T11:56:25.949Z,31.71
2022-09-02T11:58:53.772Z,30.90
2022-09-02T12:01:25.610Z,30.68
2022-09-02T12:04:34.512Z,30.35
2022-09-02T12:06:41.859Z,29.70
2022-09-02T12:09:09.786Z,29.32
2022-09-02T12:11:39.022Z,29.41
2022-09-02T12:14:08.044Z,30.11
2022-09-02T12:16:36.245Z,31.03
2022-09-02T12:19:07.902Z,32.40
2022-09-02T12:21:36.039Z,33.70
2022-09-02T12:24:04.087Z,34.80
2022-09-02T12:26:31.733Z,35.67
2022-09-02T12:28:59.804Z,35.29
2022-09-02T12:31:28.083Z,34.09
2022-09-02T12:33:55.871Z,33.47
2022-09-02T12:36:27.595Z,32.64
2022-09-02T12:38:56.090Z,32.08
2022-09-02T12:41:24.440Z,31.45
2022-09-02T12:43:52.162Z,30.70
2022-09-02T12:46:19.894Z,30.03
2022-09-02T12:48:49.178Z,30.02
2022-09-02T12:51:17.375Z,29.89
2022-09-02T12:53:45.159Z,29.74
2022-09-02T12:56:12.975Z,29.45
2022-09-02T12:58:41.498Z,29.21
2022-09-02T13:01:09.464Z,29.04
2022-09-02T13:03:37.177Z,29.03
2022-09-02T13:06:05.865Z,28.92
2022-09-02T13:08:33.515Z,28.68
2022-09-02T13:11:01.319Z,28.35
2022-09-02T13:13:29.215Z,28.00
2022-09-02T13:15:57.128Z,27.72
2022-09-02T13:18:24.925Z,27.48
2022-09-02T13:20:56.037Z,27.30
2022-09-02T13:23:31.485Z,27.44
2022-09-02T13:25:59.615Z,27.59
2022-09-02T13:28:27.292Z,27.53
2022-09-02T13:30:55.014Z,27.49
2022-09-02T13:33:22.793Z,27.37
2022-09-02T13:35:50.823Z,27.59
2022-09-02T13:38:20.931Z,27.61
2022-09-02T13:40:50.504Z,27.49
2022-09-02T13:43:18.509Z,27.51
2022-09-02T13:45:46.198Z,27.43
2022-09-02T13:48:14.016Z,27.59
2022-09-02T13:50:43.110Z,27.80
2022-09-02T13:55:58.769Z,28.74
2022-09-02T13:58:27.077Z,29.08
2022-09-02T14:00:59.698Z,29.37
2022-09-02T14:03:30.023Z,29.63
2022-09-02T14:06:00.216Z,29.94
2022-09-02T14:08:28.944Z,30.25
2022-09-02T14:10:56.878Z,30.48
2022-09-02T14:13:24.579Z,30.50
2022-09-02T14:15:53.236Z,30.45
2022-09-02T14:18:21.103Z,30.55
2022-09-02T14:20:48.850Z,30.75
2022-09-02T14:23:16.649Z,31.19
2022-09-02T14:25:44.679Z,31.72
2022-09-02T14:28:13.591Z,32.10
2022-09-02T14:30:41.448Z,32.37
2022-09-02T14:33:09.206Z,31.82
2022-09-02T14:35:37.300Z,31.22
2022-09-02T14:38:05.007Z,31.28
2022-09-02T14:40:32.744Z,31.62
2022-09-02T14:43:00.507Z,31.47
2022-09-02T14:45:28.521Z,30.96
2022-09-02T14:47:56.264Z,30.34
2022-09-02T14:50:24.025Z,29.64
2022-09-02T14:52:51.883Z,29.03
2022-09-02T14:55:19.917Z,28.93
2022-09-02T14:57:47.621Z,29.08
2022-09-02T15:00:17.978Z,28.71
2022-09-02T15:02:46.604Z,28.27
2022-09-02T15:05:15.036Z,28.40
2022-09-02T15:07:42.854Z,29.13
2022-09-02T15:10:10.571Z,29.75
2022-09-02T15:12:38.236Z,30.22
2022-09-02T15:15:06.240Z,30.33
2022-09-02T15:17:34.622Z,30.37
2022-09-02T15:20:02.325Z,30.82
2022-09-02T15:22:30.258Z,31.45
2022-09-02T15:24:58.383Z,31.95
2022-09-02T15:27:26.177Z,31.83
2022-09-02T15:29:53.928Z,30.95
2022-09-02T15:32:21.831Z,30.17
2022-09-02T15:34:49.777Z,30.77
2022-09-02T15:37:17.647Z,31.54
2022-09-02T15:39:45.354Z,32.28
2022-09-02T15:42:13.263Z,32.16
2022-09-02T15:44:42.095Z,31.39
2022-09-02T15:47:09.856Z,31.54
2022-09-02T15:49:37.732Z,31.83
2022-09-02T15:52:06.310Z,31.51
2022-09-02T15:54:34.972Z,30.93
2022-09-02T15:57:03.543Z,30.40
2022-09-02T15:59:31.328Z,30.78
2022-09-02T16:01:59.640Z,30.89
2022-09-02T16:04:29.573Z,30.42
2022-09-02T16:06:58.028Z,30.64
2022-09-02T16:09:25.865Z,30.33
2022-09-02T16:11:53.796Z,29.63
2022-09-02T16:14:21.668Z,28.94
2022-09-02T16:16:49.557Z,28.39
2022-09-02T16:19:18.016Z,27.87
2022-09-02T16:21:45.736Z,27.44
2022-09-02T16:24:13.419Z,27.04
2022-09-02T16:26:41.116Z,26.76
2022-09-02T16:29:08.846Z,26.54
2022-09-02T16:31:38.042Z,26.31
2022-09-02T16:34:05.734Z,26.09
2022-09-02T16:36:33.821Z,25.91
2022-09-02T16:39:02.139Z,25.73
2022-09-02T16:41:29.795Z,25.61
2022-09-02T16:43:57.570Z,25.50
2022-09-02T16:46:25.674Z,25.39
2022-09-02T16:48:53.437Z,25.30
2022-09-02T16:51:21.177Z,25.25
2022-09-02T16:53:48.981Z,25.19
2022-09-02T16:56:18.340Z,25.18
2022-09-02T16:58:46.115Z,25.17
2022-09-02T17:01:13.954Z,25.17
2022-09-02T17:03:41.700Z,25.16
2022-09-02T17:06:10.586Z,25.14
2022-09-02T17:08:38.794Z,25.11
2022-09-02T17:11:06.522Z,25.08
2022-09-02T17:13:34.296Z,25.02
2022-09-02T17:16:02.350Z,24.95
2022-09-02T17:18:30.151Z,24.91
2022-09-02T17:20:57.978Z,24.83
2022-09-02T17:23:25.786Z,24.77
2022-09-02T17:25:53.889Z,24.71
2022-09-02T17:28:21.642Z,24.64
2022-09-02T17:30:49.443Z,24.59
2022-09-02T17:33:17.200Z,24.53
2022-09-02T17:35:45.842Z,24.47
2022-09-02T17:38:13.581Z,24.40
2022-09-02T17:40:58.925Z,24.32
2022-09-02T17:43:28.114Z,24.24
2022-09-02T17:45:55.774Z,24.17
2022-09-02T17:48:53.884Z,24.09
2022-09-02T17:51:11.915Z,24.03
2022-09-02T17:53:40.348Z,23.95
2022-09-02T17:56:08.122Z,23.88
2022-09-02T17:58:37.846Z,23.78
2022-09-02T18:01:10.781Z,23.66
2022-09-02T18:03:38.555Z,23.53
2022-09-02T18:06:07.128Z,23.40
2022-09-02T18:08:34.850Z,23.27
2022-09-02T18:11:05.433Z,23.18
2022-09-02T18:13:33.252Z,23.09
2022-09-02T18:16:01.195Z,23.01
2022-09-02T18:18:28.949Z,22.91
2022-09-02T18:20:56.734Z,22.83
2022-09-02T18:23:24.427Z,22.75
2022-09-02T18:25:53.440Z,22.65
2022-09-02T18:28:26.050Z,22.55
2022-09-02T18:30:55.005Z,22.44
2022-09-02T18:33:23.510Z,22.34
2022-09-02T18:35:51.538Z,22.26
2022-09-02T18:38:19.367Z,22.18
2022-09-02T18:40:47.280Z,22.11
2022-09-02T18:43:15.584Z,22.06
2022-09-02T18:45:43.672Z,22.00
2022-09-02T18:48:11.431Z,21.95
2022-09-02T18:50:55.320Z,21.93
2022-09-02T18:53:22.986Z,21.89
2022-09-02T18:55:51.050Z,21.84
2022-09-02T18:58:19.328Z,21.76
2022-09-02T19:00:49.568Z,21.67
2022-09-02T19:03:17.513Z,21.58
2022-09-02T19:05:45.433Z,21.48
2022-09-02T19:08:30.563Z,21.37
2022-09-02T19:10:58.411Z,21.26
2022-09-02T19:13:30.116Z,21.19
2022-09-02T19:16:02.020Z,21.13
2022-09-02T19:18:32.426Z,21.05
2022-09-02T19:21:00.206Z,20.99
2022-09-02T19:23:28.294Z,20.92
2022-09-02T19:25:55.982Z,20.82
2022-09-02T19:28:23.814Z,20.72
2022-09-02T19:30:51.648Z,20.63
2022-09-02T19:33:19.313Z,20.54
2022-09-02T19:35:47.816Z,20.45
2022-09-02T19:38:17.909Z,20.36
2022-09-02T19:40:45.589Z,20.25
2022-09-02T19:43:13.976Z,20.16
2022-09-02T19:45:41.768Z,20.08
2022-09-02T19:48:11.349Z,20.02
2022-09-02T19:50:41.002Z,19.96
2022-09-02T19:53:08.885Z,19.89
2022-09-02T19:55:36.678Z,19.82
2022-09-02T19:58:04.572Z,19.74
2022-09-02T20:00:33.466Z,19.69
2022-09-02T20:03:01.385Z,19.60
2022-09-02T20:05:31.036Z,19.53
2022-09-02T20:07:58.722Z,19.46
2022-09-02T20:10:28.016Z,19.39
2022-09-02T20:12:57.657Z,19.32
2022-09-02T20:15:25.375Z,19.28
2022-09-02T20:17:53.055Z,19.24
2022-09-02T20:20:21.910Z,19.19
2022-09-02T20:22:49.661Z,19.12
2022-09-02T20:25:17.391Z,19.07
2022-09-02T20:27:45.092Z,18.99
2022-09-02T20:30:12.994Z,18.91
2022-09-02T20:32:41.499Z,18.83
2022-09-02T20:35:10.565Z,18.73
2022-09-02T20:37:38.174Z,18.67
2022-09-02T20:40:06.319Z,18.59
2022-09-02T20:42:34.046Z,18.52
2022-09-02T20:45:02.502Z,18.45
2022-09-02T20:47:30.213Z,18.41
2022-09-02T20:49:58.171Z,18.36
2022-09-02T20:52:26.351Z,18.33
2022-09-02T20:54:56.901Z,18.30
2022-09-02T20:57:24.679Z,18.24
2022-09-02T20:59:52.352Z,18.20
2022-09-02T21:02:20.179Z,18.15
2022-09-02T21:04:48.281Z,18.12
2022-09-02T21:07:16.035Z,18.07
2022-09-02T21:09:43.663Z,18.02
2022-09-02T21:12:12.086Z,17.99
2022-09-02T21:14:40.049Z,17.94
2022-09-02T21:17:07.727Z,17.91
2022-09-02T21:19:35.347Z,17.86
2022-09-02T21:22:03.236Z,17.83
2022-09-02T21:24:31.102Z,17.80
2022-09-02T21:26:58.825Z,17.76
2022-09-02T21:29:26.452Z,17.73
2022-09-02T21:31:54.060Z,17.70
2022-09-02T21:34:21.778Z,17.68
2022-09-02T21:36:49.666Z,17.66
2022-09-02T21:39:17.492Z,17.66
2022-09-02T21:41:45.156Z,17.66
2022-09-02T21:44:12.873Z,17.66
2022-09-02T21:46:40.959Z,17.65
2022-09-02T21:49:08.795Z,17.65
2022-09-02T21:51:37.137Z,17.66
2022-09-02T21:54:04.794Z,17.67
2022-09-02T21:56:33.644Z,17.70
2022-09-02T21:59:03.818Z,17.73
2022-09-02T22:01:35.427Z,17.78
2022-09-02T22:04:04.272Z,17.83
2022-09-02T22:06:32.622Z,17.87
2022-09-02T22:09:00.264Z,17.90
2022-09-02T22:11:27.988Z,17.92
2022-09-02T22:13:55.750Z,17.91
2022-09-02T22:16:23.822Z,17.90
2022-09-02T22:18:54.397Z,17.91
2022-09-02T22:21:22.383Z,17.94
2022-09-02T22:23:52.979Z,17.99
2022-09-02T22:26:20.651Z,18.02
2022-09-02T22:28:48.737Z,18.08
2022-09-02T22:31:17.151Z,18.13
2022-09-02T22:33:46.280Z,18.19
2022-09-02T22:36:14.800Z,18.26
2022-09-02T22:38:44.371Z,18.31
2022-09-02T22:41:12.417Z,18.36
2022-09-02T22:43:41.492Z,18.40
2022-09-02T22:46:27.342Z,18.43
2022-09-02T22:49:12.449Z,18.47
2022-09-02T22:51:57.453Z,18.52
2022-09-02T22:54:25.182Z,18.56
2022-09-02T22:56:52.839Z,18.60
2022-09-02T22:59:20.552Z,18.64
2022-09-02T23:01:48.290Z,18.64
2022-09-02T23:04:16.149Z,18.68
2022-09-02T23:06:46.422Z,18.71
2022-09-02T23:09:15.923Z,18.74
2022-09-02T23:11:44.143Z,18.76
2022-09-02T23:14:11.742Z,18.78
2022-09-02T23:16:39.921Z,18.80
2022-09-02T23:19:07.892Z,18.81
2022-09-02T23:21:37.415Z,18.81
2022-09-02T23:24:05.107Z,18.83
2022-09-02T23:26:34.111Z,18.83
2022-09-02T23:29:01.862Z,18.83
2022-09-02T23:31:31.292Z,18.87
2022-09-02T23:33:59.178Z,18.86
2022-09-02T23:36:27.444Z,18.84
2022-09-02T23:38:55.102Z,18.84
2022-09-02T23:41:24.041Z,18.81
2022-09-02T23:43:51.868Z,18.80
2022-09-02T23:46:20.176Z,18.78
2022-09-02T23:48:48.006Z,18.77
2022-09-02T23:51:15.719Z,18.77
2022-09-02T23:53:43.408Z,18.75
2022-09-02T23:56:11.630Z,18.76
2022-09-02T23:58:41.080Z,18.73
